Time;durP1;ratioP1;P1;durP2;ratioP2;P2;SDS_P1;SDS_P2;PMS_P1;PMS_P2;Temp;Humidity;BMP_temperature;BMP_pressure;BME280_temperature;BME280_humidity;BME280_pressure;Samples;Min_cycle;Max_cycle;Signal;HPM_P1;HPM_P2
2022/10/01 17:03:50;;;;;;;13.18;2.53;;;;;;;;;;7286886;19;20010;-74
2022/10/01 17:41:01;;;;;;;14.27;2.47;;;;;;;;;;7279434;19;20050;-91
2022/10/01 17:43:26;;;;;;;13.43;2.22;;;;;;;;;;7360595;19;20006;-91
2022/10/01 17:45:56;;;;;;;16.60;2.42;;;;;;;;;;7263347;19;20007;-81
2022/10/01 17:48:21;;;;;;;16.25;3.00;;;;;;;;;;7324343;19;20760;-82
2022/10/01 17:50:46;;;;;;;15.63;2.60;;;;;;;;;;7369277;19;20086;-80
2022/10/01 17:53:13;;;;;;;18.60;3.10;;;;;;;;;;7368203;19;20014;-80
2022/10/01 17:55:39;;;;;;;16.85;3.00;;;;;;;;;;7331133;19;20364;-80
2022/10/01 17:58:05;;;;;;;23.75;3.80;;;;;;;;;;7365304;19;20015;-80
2022/10/01 18:00:30;;;;;;;12.43;3.13;;;;;;;;;;7357597;19;20814;-79
2022/10/01 18:02:58;;;;;;;18.23;3.13;;;;;;;;;;7355314;19;20387;-79
2022/10/01 18:05:23;;;;;;;22.60;3.60;;;;;;;;;;7365400;19;20271;-79
2022/10/01 18:07:49;;;;;;;16.07;3.30;;;;;;;;;;7376439;19;20045;-78
2022/10/01 18:10:14;;;;;;;25.05;4.10;;;;;;;;;;7347059;19;20346;-78
2022/10/01 18:12:39;;;;;;;16.90;3.03;;;;;;;;;;7367684;19;20008;-78
2022/10/01 18:15:05;;;;;;;20.45;3.60;;;;;;;;;;7373697;19;20009;-78
2022/10/01 18:17:31;;;;;;;15.13;3.20;;;;;;;;;;7346730;19;20003;-77
2022/10/01 18:19:56;;;;;;;19.50;3.65;;;;;;;;;;7362384;19;20027;-77
2022/10/01 18:22:21;;;;;;;19.47;3.80;;;;;;;;;;7316325;19;20014;-80
2022/10/01 18:24:46;;;;;;;18.85;3.13;;;;;;;;;;7354658;19;20281;-80
2022/10/01 18:27:12;;;;;;;19.00;3.42;;;;;;;;;;7344602;19;20316;-81
2022/10/01 18:29:38;;;;;;;11.48;2.75;;;;;;;;;;7358054;19;20426;-81
2022/10/01 18:32:15;;;;;;;24.58;3.45;;;;;;;;;;7332384;19;20093;-80
2022/10/01 18:34:54;;;;;;;17.02;3.35;;;;;;;;;;7342145;19;20057;-80
2022/10/01 18:37:24;;;;;;;17.92;3.28;;;;;;;;;;7358200;19;20003;-78
2022/10/01 18:40:06;;;;;;;21.52;3.45;;;;;;;;;;7371184;19;20532;-78
2022/10/01 18:42:40;;;;;;;15.80;3.33;;;;;;;;;;7359779;19;20057;-78
2022/10/01 18:45:11;;;;;;;19.73;3.38;;;;;;;;;;7356172;19;20014;-80
2022/10/01 18:47:50;;;;;;;17.92;2.97;;;;;;;;;;7356350;19;20002;-78
2022/10/01 18:50:19;;;;;;;15.35;2.83;;;;;;;;;;7324982;19;20857;-80
2022/10/01 18:52:50;;;;;;;16.65;3.55;;;;;;;;;;7350791;19;20073;-80
2022/10/01 18:55:45;;;;;;;18.33;2.92;;;;;;;;;;7333885;19;20037;-80
2022/10/01 18:58:13;;;;;;;26.70;3.53;;;;;;;;;;7352227;19;20267;-79
2022/10/01 19:00:55;;;;;;;18.00;3.20;;;;;;;;;;7352697;19;20022;-77
2022/10/01 19:03:26;;;;;;;17.42;3.72;;;;;;;;;;7350699;19;20018;-81
2022/10/01 19:06:02;;;;;;;21.40;2.83;;;;;;;;;;7358043;19;20025;-78
2022/10/01 19:08:39;;;;;;;15.73;2.97;;;;;;;;;;7349772;19;20006;-80
2022/10/01 19:11:20;;;;;;;18.52;3.15;;;;;;;;;;7351896;19;20011;-80
2022/10/01 19:13:45;;;;;;;17.55;2.60;;;;;;;;;;7361660;19;20005;-79
2022/10/01 19:16:32;;;;;;;22.87;4.33;;;;;;;;;;7356407;19;20006;-80
2022/10/01 19:19:11;;;;;;;24.27;3.53;;;;;;;;;;7354615;19;20294;-80
2022/10/01 19:21:57;;;;;;;20.67;3.83;;;;;;;;;;7349271;19;20063;-79
2022/10/01 19:24:31;;;;;;;20.02;4.05;;;;;;;;;;7335544;19;20308;-79
2022/10/01 19:27:02;;;;;;;20.35;3.25;;;;;;;;;;7327326;19;20015;-81
2022/10/01 19:29:37;;;;;;;25.48;3.83;;;;;;;;;;7342226;19;20354;-80
2022/10/01 19:32:14;;;;;;;24.75;4.32;;;;;;;;;;7337141;19;20045;-80
2022/10/01 19:34:49;;;;;;;17.80;2.95;;;;;;;;;;7337542;19;20006;-80
2022/10/01 19:37:19;;;;;;;29.95;3.90;;;;;;;;;;7368521;19;20019;-80
2022/10/01 19:39:44;;;;;;;24.40;4.20;;;;;;;;;;7365393;19;20014;-79
2022/10/01 19:42:15;;;;;;;27.55;4.15;;;;;;;;;;7361533;19;20010;-79
2022/10/01 19:44:54;;;;;;;20.30;4.25;;;;;;;;;;7364033;19;20011;-79
2022/10/01 19:47:27;;;;;;;21.52;4.40;;;;;;;;;;7363925;19;20011;-78
2022/10/01 19:49:55;;;;;;;19.65;3.15;;;;;;;;;;7360343;19;20033;-81
2022/10/01 19:52:23;;;;;;;21.67;4.00;;;;;;;;;;7365455;19;20023;-79
2022/10/01 19:54:53;;;;;;;19.15;3.17;;;;;;;;;;7365311;19;20014;-79
2022/10/01 19:57:22;;;;;;;27.23;3.30;;;;;;;;;;7365153;19;20022;-78
2022/10/01 19:59:48;;;;;;;22.23;3.53;;;;;;;;;;7365809;19;20608;-78
2022/10/01 20:02:19;;;;;;;23.05;3.60;;;;;;;;;;7367231;19;20010;-78
2022/10/01 20:04:50;;;;;;;19.42;3.67;;;;;;;;;;7361049;19;20015;-78
2022/10/01 20:07:19;;;;;;;25.70;3.92;;;;;;;;;;7371628;19;20010;-78
2022/10/01 20:09:46;;;;;;;24.48;3.63;;;;;;;;;;7365850;19;20102;-77
2022/10/01 20:12:14;;;;;;;24.80;3.97;;;;;;;;;;7361372;19;20025;-78
2022/10/01 20:15:07;;;;;;;29.13;4.70;;;;;;;;;;7370464;19;20629;-78
2022/10/01 20:17:54;;;;;;;26.45;5.38;;;;;;;;;;7362359;19;20017;-78
2022/10/01 20:20:31;;;;;;;28.77;5.28;;;;;;;;;;7364742;19;20010;-80
2022/10/01 20:22:57;;;;;;;27.88;4.25;;;;;;;;;;7362051;19;20608;-79
2022/10/01 20:25:22;;;;;;;24.90;4.40;;;;;;;;;;7362425;19;20030;-80
2022/10/01 20:28:08;;;;;;;26.55;4.78;;;;;;;;;;7364762;19;20306;-79
2022/10/01 20:30:43;;;;;;;19.60;3.67;;;;;;;;;;7362456;19;20010;-82
2022/10/01 20:33:18;;;;;;;25.38;4.40;;;;;;;;;;7344215;19;20544;-81
2022/10/01 20:35:59;;;;;;;30.48;5.70;;;;;;;;;;7361164;19;20018;-80
2022/10/01 20:38:38;;;;;;;34.38;5.05;;;;;;;;;;7366996;19;20010;-78
2022/10/01 20:41:13;;;;;;;28.50;5.13;;;;;;;;;;7365099;19;20380;-78
2022/10/01 20:43:54;;;;;;;30.70;5.65;;;;;;;;;;7367793;19;20823;-78
2022/10/01 20:46:25;;;;;;;37.53;4.55;;;;;;;;;;7365039;19;20431;-79
2022/10/01 20:48:56;;;;;;;28.50;4.15;;;;;;;;;;7364456;19;20642;-78
2022/10/01 20:51:32;;;;;;;22.60;3.75;;;;;;;;;;7365546;19;20034;-78
2022/10/01 20:54:02;;;;;;;25.08;4.10;;;;;;;;;;7371007;19;20006;-78
2022/10/01 20:56:29;;;;;;;28.05;4.57;;;;;;;;;;7355416;19;20018;-79
2022/10/01 20:58:58;;;;;;;27.65;5.15;;;;;;;;;;7377307;19;20043;-79
2022/10/01 21:01:24;;;;;;;30.70;4.70;;;;;;;;;;7373647;19;20034;-79
2022/10/01 21:04:04;;;;;;;30.55;5.05;;;;;;;;;;7374192;19;20015;-79
2022/10/01 21:06:35;;;;;;;29.10;4.47;;;;;;;;;;7364002;19;20013;-78
2022/10/01 21:09:09;;;;;;;34.58;4.50;;;;;;;;;;7375447;19;20018;-78
2022/10/01 21:11:36;;;;;;;34.38;4.82;;;;;;;;;;7369581;19;20017;-78
2022/10/01 21:14:11;;;;;;;27.10;4.25;;;;;;;;;;7375695;19;20051;-78
2022/10/01 21:16:55;;;;;;;27.20;4.07;;;;;;;;;;7362347;19;20022;-78
2022/10/01 21:19:25;;;;;;;26.05;4.95;;;;;;;;;;7376049;19;20819;-80
2022/10/01 21:22:09;;;;;;;29.17;4.15;;;;;;;;;;7371294;19;20015;-80
2022/10/01 21:24:40;;;;;;;35.65;4.93;;;;;;;;;;7365054;19;20070;-80
2022/10/01 21:27:14;;;;;;;27.05;4.68;;;;;;;;;;7366844;19;20118;-78
2022/10/01 21:29:39;;;;;;;;;;;;;;;;;;7377621;19;20065;-79
2022/10/01 21:32:15;;;;;;;30.05;4.45;;;;;;;;;;7369786;19;19986;-78
2022/10/01 21:34:49;;;;;;;15.93;3.67;;;;;;;;;;7369856;19;20667;-78
2022/10/01 21:37:32;;;;;;;24.88;4.10;;;;;;;;;;7355718;19;20025;-79
2022/10/01 21:40:16;;;;;;;30.48;4.20;;;;;;;;;;7370956;19;20021;-81
2022/10/01 21:42:41;;;;;;;35.28;4.60;;;;;;;;;;7365273;19;20014;-80
2022/10/01 21:45:14;;;;;;;30.93;4.30;;;;;;;;;;7372001;19;20297;-81
2022/10/01 21:47:45;;;;;;;27.23;4.18;;;;;;;;;;7373306;19;20003;-79
2022/10/01 21:50:19;;;;;;;34.15;3.95;;;;;;;;;;7366888;19;20014;-80
2022/10/01 21:52:50;;;;;;;20.52;4.13;;;;;;;;;;7366580;19;20010;-80
2022/10/01 21:55:26;;;;;;;31.10;3.83;;;;;;;;;;7358259;19;20596;-81
2022/10/01 21:57:51;;;;;;;27.48;4.18;;;;;;;;;;7374874;19;20784;-79
2022/10/01 22:00:21;;;;;;;31.02;4.30;;;;;;;;;;7371670;19;20006;-80
2022/10/01 22:02:52;;;;;;;30.88;4.93;;;;;;;;;;7358316;19;20010;-81
2022/10/01 22:05:28;;;;;;;33.92;4.28;;;;;;;;;;7369029;19;20021;-79
2022/10/01 22:07:58;;;;;;;23.75;4.43;;;;;;;;;;7372009;19;20332;-79
2022/10/01 22:10:30;;;;;;;28.95;4.35;;;;;;;;;;7366530;19;20014;-80
2022/10/01 22:12:59;;;;;;;25.00;4.45;;;;;;;;;;7365987;19;20011;-81
2022/10/01 22:15:29;;;;;;;22.20;3.72;;;;;;;;;;7358900;19;20479;-81
2022/10/01 22:17:55;;;;;;;19.95;3.95;;;;;;;;;;7358065;19;20034;-80
2022/10/01 22:20:23;;;;;;;26.60;3.65;;;;;;;;;;7366017;19;20014;-78
2022/10/01 22:22:51;;;;;;;29.27;4.72;;;;;;;;;;7368576;19;20364;-79
2022/10/01 22:25:16;;;;;;;23.55;4.05;;;;;;;;;;7366170;19;20018;-79
2022/10/01 22:27:47;;;;;;;21.48;3.58;;;;;;;;;;7367012;19;22176;-80
2022/10/01 22:30:19;;;;;;;21.67;4.35;;;;;;;;;;7363654;19;20204;-79
2022/10/01 22:32:49;;;;;;;23.98;4.30;;;;;;;;;;7370164;19;20011;-80
2022/10/01 22:35:35;;;;;;;33.10;4.32;;;;;;;;;;7354369;19;20038;-79
2022/10/01 22:38:19;;;;;;;31.27;4.15;;;;;;;;;;7369603;19;20593;-80
2022/10/01 22:40:46;;;;;;;34.60;3.85;;;;;;;;;;7357341;19;20011;-79
2022/10/01 22:43:12;;;;;;;22.63;4.30;;;;;;;;;;7370900;19;20026;-80
2022/10/01 22:45:59;;;;;;;25.92;4.00;;;;;;;;;;7370512;19;20021;-79
2022/10/01 22:48:43;;;;;;;33.00;4.43;;;;;;;;;;7373061;19;20041;-79
2022/10/01 22:51:08;;;;;;;;;;;;;;;;;;7331496;19;20014;-79
2022/10/01 22:53:56;;;;;;;31.13;5.07;;;;;;;;;;7364014;19;19933;-79
2022/10/01 22:56:35;;;;;;;23.60;3.90;;;;;;;;;;7350459;19;20010;-80
2022/10/01 22:59:17;;;;;;;28.23;4.65;;;;;;;;;;7369513;19;20761;-79
2022/10/01 23:01:57;;;;;;;35.25;5.15;;;;;;;;;;7373530;19;20030;-80
2022/10/01 23:04:39;;;;;;;25.73;3.85;;;;;;;;;;7361578;19;20006;-79
2022/10/01 23:07:18;;;;;;;27.52;4.95;;;;;;;;;;7366436;19;20014;-79
2022/10/01 23:09:48;;;;;;;33.45;4.32;;;;;;;;;;7365290;19;20038;-80
2022/10/01 23:12:32;;;;;;;33.00;4.30;;;;;;;;;;7360316;19;20514;-79
2022/10/01 23:15:05;;;;;;;28.58;4.88;;;;;;;;;;7365846;19;21028;-82
2022/10/01 23:17:32;;;;;;;32.15;4.68;;;;;;;;;;7369932;19;20051;-79
2022/10/01 23:20:16;;;;;;;31.55;5.07;;;;;;;;;;7361491;19;20015;-80
2022/10/01 23:23:02;;;;;;;24.02;4.18;;;;;;;;;;7369242;19;20602;-79
2022/10/01 23:25:39;;;;;;;29.02;4.78;;;;;;;;;;7359150;19;20040;-79
2022/10/01 23:28:33;;;;;;;27.73;5.43;;;;;;;;;;7371428;19;20423;-78
2022/10/01 23:30:58;;;;;;;27.13;4.15;;;;;;;;;;7363467;19;20010;-78
2022/10/01 23:33:28;;;;;;;28.83;3.97;;;;;;;;;;7375600;19;20013;-79
2022/10/01 23:36:00;;;;;;;30.85;5.38;;;;;;;;;;7356575;19;20014;-78
2022/10/01 23:38:50;;;;;;;31.77;5.13;;;;;;;;;;7371485;19;20010;-80
2022/10/01 23:41:22;;;;;;;38.13;4.28;;;;;;;;;;7366218;19;20015;-82
2022/10/01 23:43:48;;;;;;;36.78;6.88;;;;;;;;;;7364326;19;20019;-79
2022/10/01 23:46:16;;;;;;;40.30;5.78;;;;;;;;;;7366894;19;20110;-79
2022/10/01 23:48:41;;;;;;;29.35;5.53;;;;;;;;;;7366305;19;20015;-81
2022/10/01 23:51:25;;;;;;;30.48;4.40;;;;;;;;;;7352977;19;20526;-79
2022/10/01 23:53:50;;;;;;;;;;;;;;;;;;7366078;19;20033;-79
2022/10/01 23:59:18;;;;;;;36.30;5.60;;;;;;;;;;7371226;19;20014;-78
